Time;durP1;ratioP1;P1;durP2;ratioP2;P2;SDS_P1;SDS_P2;PMS_P1;PMS_P2;Temp;Humidity;BMP_temperature;BMP_pressure;BME280_temperature;BME280_humidity;BME280_pressure;Samples;Min_cycle;Max_cycle;Signal;HPM_P1;HPM_P2
2023/12/24 00:01:29;;;;;;;7.93;1.67;;;11.00;99.90;;;;;;5062411;28;20387;-37
2023/12/24 00:03:55;;;;;;;6.65;1.77;;;11.00;99.90;;;;;;5062478;28;20111;-38
2023/12/24 00:06:20;;;;;;;5.72;1.80;;;11.00;99.90;;;;;;5061816;28;20025;-37
2023/12/24 00:08:46;;;;;;;7.35;1.70;;;11.00;99.90;;;;;;5062820;28;20071;-38
2023/12/24 00:11:12;;;;;;;5.03;1.40;;;11.00;99.90;;;;;;5062036;28;20021;-37
2023/12/24 00:13:38;;;;;;;6.53;1.40;;;11.10;99.90;;;;;;5061242;28;20058;-36
2023/12/24 00:16:03;;;;;;;6.40;1.30;;;11.10;99.90;;;;;;5062308;28;20060;-37
2023/12/24 00:18:29;;;;;;;3.90;1.88;;;11.10;99.90;;;;;;5061587;28;20470;-37
2023/12/24 00:20:58;;;;;;;4.88;1.15;;;11.10;99.90;;;;;;5061340;28;20029;-38
2023/12/24 00:23:24;;;;;;;5.35;1.48;;;11.10;99.90;;;;;;5061191;28;20025;-37
2023/12/24 00:25:49;;;;;;;5.03;1.40;;;11.10;99.90;;;;;;5061661;28;20024;-37
2023/12/24 00:28:15;;;;;;;7.10;2.17;;;11.10;99.90;;;;;;5060216;28;20856;-37
2023/12/24 00:30:41;;;;;;;4.63;1.13;;;11.10;99.90;;;;;;5061111;28;20850;-37
2023/12/24 00:33:07;;;;;;;4.78;1.38;;;11.10;99.90;;;;;;5061526;28;20032;-36
2023/12/24 00:35:34;;;;;;;4.70;1.30;;;11.10;99.90;;;;;;5060528;28;20025;-36
2023/12/24 00:37:59;;;;;;;3.70;1.17;;;11.10;99.90;;;;;;5061081;28;20097;-36
2023/12/24 00:40:25;;;;;;;3.75;1.30;;;11.10;99.90;;;;;;5059804;28;20025;-37
2023/12/24 00:42:51;;;;;;;7.82;1.67;;;11.10;99.90;;;;;;5061458;28;20183;-37
2023/12/24 00:45:17;;;;;;;4.68;1.00;;;11.10;99.90;;;;;;5061747;28;20020;-37
2023/12/24 00:47:42;;;;;;;3.65;1.08;;;11.10;99.90;;;;;;5060878;28;20024;-37
2023/12/24 00:50:09;;;;;;;6.47;1.60;;;11.10;99.90;;;;;;5061295;28;20106;-36
2023/12/24 00:52:37;;;;;;;3.72;1.20;;;11.10;99.90;;;;;;5061250;28;20017;-36
2023/12/24 00:55:03;;;;;;;3.95;1.23;;;11.10;99.90;;;;;;5060179;28;20868;-37
2023/12/24 00:57:29;;;;;;;2.63;0.95;;;11.10;99.90;;;;;;5060569;28;20573;-38
2023/12/24 00:59:54;;;;;;;3.15;1.10;;;11.10;99.90;;;;;;5060670;28;20021;-36
2023/12/24 01:02:20;;;;;;;3.25;1.20;;;11.10;99.90;;;;;;5059809;28;20028;-37
2023/12/24 01:04:46;;;;;;;3.65;1.27;;;11.10;99.90;;;;;;5061278;28;20021;-37
2023/12/24 01:07:12;;;;;;;4.15;1.00;;;11.10;99.90;;;;;;5060859;28;20094;-38
2023/12/24 01:09:38;;;;;;;5.28;1.65;;;11.10;99.90;;;;;;5059962;28;20036;-36
2023/12/24 01:12:05;;;;;;;4.30;1.23;;;11.10;99.90;;;;;;5060281;28;20016;-36
2023/12/24 01:14:30;;;;;;;3.70;1.17;;;11.10;99.90;;;;;;5060666;28;20421;-37
2023/12/24 01:16:56;;;;;;;4.25;0.95;;;11.10;99.90;;;;;;5059542;28;20472;-37
2023/12/24 01:19:22;;;;;;;3.50;0.80;;;11.10;99.90;;;;;;5060622;28;20036;-46
2023/12/24 01:21:48;;;;;;;2.35;0.90;;;11.10;99.90;;;;;;5061403;28;20050;-37
2023/12/24 01:24:14;;;;;;;5.03;1.33;;;11.10;99.90;;;;;;5059952;28;20037;-36
2023/12/24 01:26:42;;;;;;;2.88;1.10;;;11.10;99.90;;;;;;5060143;28;20491;-36
2023/12/24 01:29:08;;;;;;;6.85;1.40;;;11.10;99.90;;;;;;5060752;28;20540;-36
2023/12/24 01:31:33;;;;;;;2.90;1.00;;;11.10;99.90;;;;;;5059419;28;20408;-36
2023/12/24 01:33:59;;;;;;;5.40;1.38;;;11.10;99.90;;;;;;5059806;28;20024;-36
2023/12/24 01:36:25;;;;;;;2.97;1.27;;;11.10;99.90;;;;;;5060306;28;20024;-36
2023/12/24 01:38:50;;;;;;;2.42;1.00;;;11.10;99.90;;;;;;5059294;28;20039;-36
2023/12/24 01:41:16;;;;;;;3.15;1.27;;;11.00;99.90;;;;;;5060583;28;20038;-37
2023/12/24 01:43:43;;;;;;;6.70;1.50;;;11.00;99.90;;;;;;5059097;28;20036;-36
2023/12/24 01:46:11;;;;;;;3.40;1.45;;;11.00;99.90;;;;;;5060445;28;20105;-36
2023/12/24 01:48:38;;;;;;;4.43;1.40;;;11.00;99.90;;;;;;5060333;28;20043;-36
2023/12/24 01:51:04;;;;;;;2.70;1.30;;;10.90;99.90;;;;;;5059856;28;20025;-37
2023/12/24 01:53:31;;;;;;;3.30;1.40;;;10.90;99.90;;;;;;5058907;28;20473;-37
2023/12/24 01:55:58;;;;;;;4.60;1.42;;;10.90;99.90;;;;;;5059372;28;20037;-37
2023/12/24 01:58:24;;;;;;;5.50;1.70;;;10.80;99.90;;;;;;5058964;28;20043;-37
2023/12/24 02:00:50;;;;;;;2.90;1.40;;;10.80;99.90;;;;;;5059526;28;20020;-37
2023/12/24 02:03:17;;;;;;;3.63;1.67;;;10.80;99.90;;;;;;5060208;28;20024;-36
2023/12/24 02:05:47;;;;;;;2.50;1.25;;;10.70;99.90;;;;;;5059626;28;20035;-37
2023/12/24 02:08:16;;;;;;;3.47;1.17;;;10.70;99.90;;;;;;5059410;28;20037;-37
2023/12/24 02:10:42;;;;;;;4.45;1.40;;;10.70;99.90;;;;;;5059778;28;20032;-37
2023/12/24 02:13:09;;;;;;;3.25;1.40;;;10.60;99.90;;;;;;5059452;28;20177;-38
2023/12/24 02:15:35;;;;;;;5.90;2.15;;;10.50;99.90;;;;;;5059657;28;20024;-37
2023/12/24 02:18:01;;;;;;;7.43;1.85;;;10.50;99.90;;;;;;5060028;28;21000;-37
2023/12/24 02:20:26;;;;;;;4.70;1.77;;;10.50;99.90;;;;;;5058300;28;20021;-38
2023/12/24 02:22:53;;;;;;;5.68;1.90;;;10.50;99.90;;;;;;5059802;28;20431;-37
2023/12/24 02:25:19;;;;;;;3.97;1.45;;;10.40;99.90;;;;;;5060348;28;20472;-37
2023/12/24 02:28:09;;;;;;;6.32;1.63;;;10.50;99.90;;;;;;5059362;28;20037;-37
2023/12/24 02:30:44;;;;;;;4.00;1.60;;;10.40;99.90;;;;;;5059692;28;20035;-37
2023/12/24 02:33:12;;;;;;;3.70;1.77;;;10.40;99.90;;;;;;5060449;28;20021;-38
2023/12/24 02:35:39;;;;;;;6.63;2.17;;;10.40;99.90;;;;;;5059841;28;20016;-37
2023/12/24 02:38:05;;;;;;;9.13;2.17;;;10.40;99.90;;;;;;5060560;28;20017;-37
2023/12/24 02:40:30;;;;;;;3.80;1.70;;;10.40;99.90;;;;;;5059243;28;20645;-36
2023/12/24 02:42:56;;;;;;;3.55;1.92;;;10.40;99.90;;;;;;5060315;28;20025;-38
2023/12/24 02:45:21;;;;;;;5.40;2.38;;;10.40;99.90;;;;;;5058953;28;20028;-37
2023/12/24 02:47:47;;;;;;;4.55;2.40;;;10.40;99.90;;;;;;5059767;28;20051;-37
2023/12/24 02:50:13;;;;;;;6.20;2.55;;;10.40;99.90;;;;;;5059905;28;20082;-41
2023/12/24 02:52:38;;;;;;;8.15;2.95;;;10.40;99.90;;;;;;5059358;28;20123;-37
2023/12/24 02:55:04;;;;;;;6.22;2.83;;;10.40;99.90;;;;;;5059909;28;20480;-37
2023/12/24 02:57:30;;;;;;;4.70;2.40;;;10.40;99.90;;;;;;5059594;28;20031;-37
2023/12/24 02:59:55;;;;;;;4.63;2.80;;;10.40;99.90;;;;;;5058938;28;20478;-38
2023/12/24 03:02:21;;;;;;;5.18;2.65;;;10.40;99.90;;;;;;5058986;28;20046;-37
2023/12/24 03:04:46;;;;;;;5.03;3.10;;;10.50;99.90;;;;;;5059765;28;20140;-37
2023/12/24 03:07:12;;;;;;;4.43;2.85;;;10.50;99.90;;;;;;5059517;28;20028;-38
2023/12/24 03:09:38;;;;;;;5.70;3.28;;;10.50;99.90;;;;;;5059324;28;20047;-38
2023/12/24 03:12:05;;;;;;;4.75;3.67;;;10.50;99.90;;;;;;5059798;28;20615;-37
2023/12/24 03:14:30;;;;;;;5.93;3.67;;;10.50;99.90;;;;;;5059655;28;20024;-36
2023/12/24 03:16:56;;;;;;;4.97;3.28;;;10.50;99.90;;;;;;5058661;28;20388;-36
2023/12/24 03:19:21;;;;;;;8.80;3.90;;;10.50;99.90;;;;;;5059530;28;20376;-36
2023/12/24 03:21:47;;;;;;;5.80;3.35;;;10.50;99.90;;;;;;5058912;28;20133;-37
2023/12/24 03:24:13;;;;;;;7.22;3.35;;;10.50;99.90;;;;;;5058214;28;20028;-37
2023/12/24 03:26:38;;;;;;;6.65;3.60;;;10.50;99.90;;;;;;5058954;28;20027;-36
2023/12/24 03:29:05;;;;;;;4.78;3.05;;;10.50;99.90;;;;;;5058587;28;20032;-38
2023/12/24 03:31:30;;;;;;;4.88;2.75;;;10.50;99.90;;;;;;5058643;28;20016;-36
2023/12/24 03:33:56;;;;;;;3.15;2.80;;;10.50;99.90;;;;;;5058883;28;20025;-36
2023/12/24 03:36:22;;;;;;;3.80;2.63;;;10.60;99.90;;;;;;5058408;28;20086;-37
2023/12/24 03:38:48;;;;;;;5.30;3.53;;;10.60;99.90;;;;;;5059100;28;20024;-36
2023/12/24 03:41:15;;;;;;;5.07;2.90;;;10.60;99.90;;;;;;5059565;28;20025;-37
2023/12/24 03:43:40;;;;;;;3.20;2.22;;;10.60;99.90;;;;;;5059570;28;20020;-37
2023/12/24 03:46:06;;;;;;;3.38;2.40;;;10.60;99.90;;;;;;5059479;28;20082;-37
2023/12/24 03:48:33;;;;;;;3.55;2.30;;;10.60;99.90;;;;;;5059465;28;20033;-38
2023/12/24 03:50:59;;;;;;;2.28;1.92;;;10.60;99.90;;;;;;5058252;28;20028;-37
2023/12/24 03:53:24;;;;;;;3.45;2.20;;;10.60;99.90;;;;;;5058493;28;20048;-37
2023/12/24 03:55:50;;;;;;;2.70;2.38;;;10.60;99.90;;;;;;5059563;28;20024;-37
2023/12/24 03:58:15;;;;;;;3.33;1.98;;;10.60;99.90;;;;;;5058644;28;20813;-46
2023/12/24 04:00:41;;;;;;;2.47;1.88;;;10.60;99.90;;;;;;5058753;28;20032;-38
2023/12/24 04:03:07;;;;;;;3.28;1.40;;;10.60;99.90;;;;;;5059074;28;20017;-37
2023/12/24 04:05:32;;;;;;;1.95;1.27;;;10.60;99.90;;;;;;5061867;28;20025;-38
2023/12/24 04:07:58;;;;;;;1.23;1.13;;;10.70;99.90;;;;;;5062477;28;20024;-37
2023/12/24 04:10:23;;;;;;;1.48;1.20;;;10.60;99.90;;;;;;5062579;28;20051;-37
2023/12/24 04:12:49;;;;;;;1.58;1.05;;;10.70;99.90;;;;;;5061631;28;20537;-37
2023/12/24 04:15:15;;;;;;;1.27;0.98;;;10.70;99.90;;;;;;5062112;28;20391;-38
2023/12/24 04:17:41;;;;;;;1.13;0.90;;;10.70;99.90;;;;;;5062053;28;20653;-39
2023/12/24 04:20:07;;;;;;;1.83;0.90;;;10.70;99.90;;;;;;5061861;28;20119;-37
2023/12/24 04:22:32;;;;;;;0.77;0.77;;;10.70;99.90;;;;;;5062385;28;20024;-38
2023/12/24 04:24:58;;;;;;;1.13;0.80;;;10.70;99.90;;;;;;5062729;28;20024;-37
2023/12/24 04:27:24;;;;;;;0.90;0.90;;;10.70;99.90;;;;;;5062238;28;20084;-37
2023/12/24 04:29:51;;;;;;;0.60;0.60;;;10.70;99.90;;;;;;5062057;28;20040;-37
2023/12/24 04:32:18;;;;;;;2.28;0.65;;;10.70;99.90;;;;;;5062668;28;20105;-37
2023/12/24 04:34:44;;;;;;;0.88;0.70;;;10.70;99.90;;;;;;5061644;28;20039;-37
2023/12/24 04:37:10;;;;;;;0.57;0.57;;;10.70;99.90;;;;;;5061621;28;20807;-37
2023/12/24 04:39:36;;;;;;;0.68;0.50;;;10.70;99.90;;;;;;5060973;28;20028;-37
2023/12/24 04:42:02;;;;;;;0.90;0.80;;;10.70;99.90;;;;;;5062071;28;20054;-38
2023/12/24 04:44:27;;;;;;;0.57;0.50;;;10.70;99.90;;;;;;5061345;28;20376;-37
2023/12/24 04:46:53;;;;;;;1.02;0.50;;;10.70;99.90;;;;;;5060399;28;20534;-37
2023/12/24 04:49:18;;;;;;;0.52;0.40;;;10.70;99.90;;;;;;5061585;28;20490;-37
2023/12/24 04:51:45;;;;;;;0.50;0.43;;;10.80;99.90;;;;;;5061932;28;20791;-37
2023/12/24 04:54:11;;;;;;;0.47;0.47;;;10.80;99.90;;;;;;5060853;28;20114;-37
2023/12/24 04:56:36;;;;;;;0.77;0.70;;;10.70;99.90;;;;;;5061369;28;20474;-37
2023/12/24 04:59:02;;;;;;;0.93;0.60;;;10.80;99.90;;;;;;5060914;28;20056;-37
2023/12/24 05:01:27;;;;;;;0.50;0.50;;;10.80;99.90;;;;;;5060913;28;20017;-37
2023/12/24 05:03:53;;;;;;;0.40;0.40;;;10.80;99.90;;;;;;5061603;28;20031;-37
2023/12/24 05:06:19;;;;;;;0.63;0.63;;;10.80;99.90;;;;;;5061481;28;20127;-37
2023/12/24 05:08:44;;;;;;;0.60;0.55;;;10.80;99.90;;;;;;5061038;28;20036;-38
2023/12/24 05:11:10;;;;;;;0.50;0.50;;;10.80;99.90;;;;;;5062616;28;20031;-37
2023/12/24 05:13:36;;;;;;;1.02;0.65;;;10.80;99.90;;;;;;5060872;28;20074;-38
2023/12/24 05:16:03;;;;;;;0.60;0.60;;;10.80;99.90;;;;;;5058869;28;20569;-37
2023/12/24 05:18:29;;;;;;;0.90;0.70;;;10.80;99.90;;;;;;5061476;28;20016;-37
2023/12/24 05:20:54;;;;;;;0.60;0.60;;;10.80;99.90;;;;;;5060266;28;20520;-37
2023/12/24 05:23:21;;;;;;;0.70;0.70;;;10.80;99.90;;;;;;5060111;28;20058;-37
2023/12/24 05:25:49;;;;;;;0.93;0.80;;;10.80;99.90;;;;;;5061130;28;20068;-37
2023/12/24 05:28:17;;;;;;;0.65;0.65;;;10.90;99.90;;;;;;5061714;28;20052;-42
2023/12/24 05:30:46;;;;;;;0.88;0.70;;;10.90;99.90;;;;;;5059867;28;20133;-37
2023/12/24 05:33:11;;;;;;;0.77;0.73;;;10.90;99.90;;;;;;5061195;28;20025;-37
2023/12/24 05:35:37;;;;;;;1.08;0.98;;;10.90;99.90;;;;;;5060133;28;20031;-37
2023/12/24 05:38:03;;;;;;;0.75;0.75;;;10.90;99.90;;;;;;5060629;28;20024;-37
2023/12/24 05:40:28;;;;;;;0.90;0.80;;;11.00;99.90;;;;;;5060554;28;20028;-36
2023/12/24 05:42:54;;;;;;;1.38;0.93;;;10.90;99.90;;;;;;5060296;28;20080;-36
2023/12/24 05:45:20;;;;;;;1.13;1.02;;;11.00;99.90;;;;;;5060288;28;20506;-37
2023/12/24 05:47:45;;;;;;;3.15;0.85;;;11.00;99.90;;;;;;5061846;28;20024;-37
2023/12/24 05:50:11;;;;;;;0.95;0.80;;;11.00;99.90;;;;;;5061440;28;20034;-36
2023/12/24 05:52:37;;;;;;;2.05;0.70;;;11.00;99.90;;;;;;5060912;28;20028;-37
2023/12/24 05:55:04;;;;;;;1.52;1.00;;;11.10;99.90;;;;;;5060647;28;20114;-36
2023/12/24 05:57:29;;;;;;;1.98;0.98;;;11.10;99.90;;;;;;5059837;28;20062;-36
2023/12/24 05:59:56;;;;;;;2.33;0.77;;;11.10;99.90;;;;;;5060589;28;20632;-36
2023/12/24 06:02:21;;;;;;;1.90;0.60;;;11.10;99.90;;;;;;5060311;28;20029;-36
2023/12/24 06:04:47;;;;;;;1.55;0.60;;;11.20;99.90;;;;;;5060558;28;20058;-37
2023/12/24 06:07:15;;;;;;;3.13;0.90;;;11.20;99.90;;;;;;5060678;28;20035;-37
2023/12/24 06:09:44;;;;;;;0.88;0.50;;;11.20;99.90;;;;;;5060301;28;20139;-37
2023/12/24 06:12:09;;;;;;;1.00;0.60;;;11.20;99.90;;;;;;5060365;28;20025;-36
2023/12/24 06:14:35;;;;;;;2.05;0.90;;;11.20;99.90;;;;;;5060105;28;20110;-37
2023/12/24 06:17:00;;;;;;;0.95;0.70;;;11.20;99.90;;;;;;5059815;28;20024;-36
2023/12/24 06:19:26;;;;;;;2.70;0.70;;;11.20;99.90;;;;;;5059322;28;20123;-37
2023/12/24 06:21:52;;;;;;;1.52;0.95;;;11.30;99.90;;;;;;5059633;28;20063;-36
2023/12/24 06:24:20;;;;;;;2.38;0.80;;;11.30;99.90;;;;;;5060545;28;20064;-36
2023/12/24 06:26:49;;;;;;;1.65;0.70;;;11.30;99.90;;;;;;5059136;28;20123;-37
2023/12/24 06:29:15;;;;;;;2.13;0.75;;;11.30;99.90;;;;;;5059949;28;20032;-37
2023/12/24 06:31:40;;;;;;;2.30;1.13;;;11.30;99.90;;;;;;5059303;28;20903;-44
2023/12/24 06:34:06;;;;;;;3.60;0.98;;;11.30;99.90;;;;;;5058846;28;20039;-36
2023/12/24 06:36:32;;;;;;;1.67;0.80;;;11.30;99.90;;;;;;5059381;28;20040;-37
2023/12/24 06:38:57;;;;;;;4.68;1.30;;;11.30;99.90;;;;;;5058473;28;20517;-36
2023/12/24 06:41:23;;;;;;;3.55;1.30;;;11.30;99.90;;;;;;5059826;28;20029;-36
2023/12/24 06:43:49;;;;;;;2.72;1.10;;;11.30;99.90;;;;;;5059205;28;20190;-35
2023/12/24 06:46:15;;;;;;;1.88;1.13;;;11.30;99.90;;;;;;5059385;28;20078;-37
2023/12/24 06:48:41;;;;;;;3.30;1.30;;;11.30;99.90;;;;;;5058957;28;20119;-35
2023/12/24 06:51:07;;;;;;;2.60;1.10;;;11.40;99.90;;;;;;5060022;28;20126;-35
2023/12/24 06:53:33;;;;;;;2.35;1.02;;;11.40;99.90;;;;;;5058479;28;20455;-35
2023/12/24 06:55:59;;;;;;;4.18;1.38;;;11.40;99.90;;;;;;5059708;28;20025;-36
2023/12/24 06:58:24;;;;;;;3.13;0.88;;;11.40;99.90;;;;;;5059400;28;20584;-35
2023/12/24 07:00:50;;;;;;;2.13;1.00;;;11.40;99.90;;;;;;5058157;28;20025;-35
2023/12/24 07:03:15;;;;;;;2.30;0.80;;;11.40;99.90;;;;;;5059525;28;20100;-35
2023/12/24 07:05:42;;;;;;;1.40;0.70;;;11.40;99.90;;;;;;5058963;28;20889;-35
2023/12/24 07:08:08;;;;;;;3.55;0.85;;;11.40;99.90;;;;;;5058252;28;20051;-36
2023/12/24 07:10:34;;;;;;;3.35;1.00;;;11.40;99.90;;;;;;5059637;28;20063;-35
2023/12/24 07:13:00;;;;;;;2.47;1.08;;;11.50;99.90;;;;;;5058647;28;20450;-35
2023/12/24 07:15:25;;;;;;;2.38;1.00;;;11.40;99.90;;;;;;5057881;28;20432;-36
2023/12/24 07:17:54;;;;;;;1.83;1.00;;;11.40;99.90;;;;;;5057496;28;20039;-35
2023/12/24 07:20:19;;;;;;;1.45;0.60;;;11.50;99.90;;;;;;5055899;28;20074;-35
2023/12/24 07:22:45;;;;;;;3.20;0.88;;;11.50;99.90;;;;;;5059246;28;20082;-36
2023/12/24 07:25:10;;;;;;;1.98;0.95;;;11.40;99.90;;;;;;5059153;28;20082;-36
2023/12/24 07:27:36;;;;;;;1.92;0.88;;;11.50;99.90;;;;;;5059650;28;20036;-36
2023/12/24 07:30:02;;;;;;;3.35;1.00;;;11.50;99.90;;;;;;5058493;28;20609;-36
2023/12/24 07:32:27;;;;;;;1.95;0.90;;;11.50;99.90;;;;;;5059266;28;20032;-36
2023/12/24 07:34:56;;;;;;;2.83;0.90;;;11.50;99.90;;;;;;5059169;28;20041;-37
2023/12/24 07:37:22;;;;;;;3.67;1.00;;;11.50;99.90;;;;;;5058045;28;20032;-36
2023/12/24 07:39:47;;;;;;;3.42;1.02;;;11.50;99.90;;;;;;5063042;28;20028;-36
2023/12/24 07:42:13;;;;;;;2.67;1.10;;;11.50;99.90;;;;;;5062924;28;20025;-41
2023/12/24 07:44:39;;;;;;;2.83;1.20;;;11.50;99.90;;;;;;5063043;28;20016;-42
2023/12/24 07:47:05;;;;;;;3.33;0.98;;;11.60;99.90;;;;;;5062211;28;20055;-36
2023/12/24 07:49:31;;;;;;;3.42;1.00;;;11.50;99.90;;;;;;5061543;28;20111;-36
2023/12/24 07:51:56;;;;;;;4.70;1.45;;;11.50;99.90;;;;;;5063013;28;20760;-38
2023/12/24 07:54:22;;;;;;;2.30;1.08;;;11.60;99.90;;;;;;5062339;28;20044;-36
2023/12/24 07:56:50;;;;;;;2.05;1.00;;;11.60;99.90;;;;;;5061900;28;20111;-38
2023/12/24 07:59:16;;;;;;;3.45;1.00;;;11.60;99.90;;;;;;5062017;28;20048;-37
2023/12/24 08:01:41;;;;;;;2.95;1.40;;;11.60;99.90;;;;;;5061188;28;20467;-37
2023/12/24 08:04:07;;;;;;;4.03;1.10;;;11.60;99.90;;;;;;5062177;28;20545;-36
2023/12/24 08:06:32;;;;;;;3.30;1.20;;;11.60;99.90;;;;;;5062252;28;20475;-36
2023/12/24 08:08:58;;;;;;;4.00;1.10;;;11.60;99.90;;;;;;5062222;28;20035;-40
2023/12/24 08:11:24;;;;;;;3.30;1.20;;;11.60;99.90;;;;;;5065200;28;20108;-36
2023/12/24 08:13:56;;;;;;;4.07;1.13;;;11.60;99.90;;;;;;5062469;28;20028;-36
2023/12/24 08:16:21;;;;;;;2.45;1.10;;;11.60;99.90;;;;;;5059839;28;20036;-36
2023/12/24 08:18:47;;;;;;;3.20;1.20;;;11.60;99.90;;;;;;5061145;28;20025;-36
2023/12/24 08:21:13;;;;;;;1.73;0.98;;;11.60;99.90;;;;;;5057625;28;20028;-36
2023/12/24 08:23:38;;;;;;;3.15;1.30;;;11.60;99.90;;;;;;5058445;28;20031;-36
2023/12/24 08:26:07;;;;;;;2.78;1.17;;;11.60;99.90;;;;;;5058732;28;20496;-36
2023/12/24 08:28:32;;;;;;;3.17;1.10;;;11.60;99.90;;;;;;5060563;28;20198;-36
2023/12/24 08:30:59;;;;;;;5.78;1.45;;;11.70;99.90;;;;;;5059461;28;20020;-36
2023/12/24 08:33:24;;;;;;;2.17;1.00;;;11.70;99.90;;;;;;5058995;28;20028;-37
2023/12/24 08:35:50;;;;;;;1.15;0.90;;;11.70;99.90;;;;;;5059074;28;20024;-35
2023/12/24 08:38:15;;;;;;;3.05;1.20;;;11.70;99.90;;;;;;5058745;28;20021;-37
2023/12/24 08:40:47;;;;;;;2.22;1.10;;;11.70;99.90;;;;;;5057012;28;20028;-36
2023/12/24 08:43:12;;;;;;;2.53;1.27;;;11.70;99.90;;;;;;5055932;28;20033;-36
2023/12/24 08:45:38;;;;;;;2.17;0.80;;;11.70;99.90;;;;;;5060874;28;20357;-37
2023/12/24 08:48:04;;;;;;;2.38;1.00;;;11.70;99.90;;;;;;5060790;28;20021;-35
2023/12/24 08:50:29;;;;;;;2.63;0.90;;;11.70;99.90;;;;;;5058797;28;20062;-36
2023/12/24 08:52:55;;;;;;;1.33;0.73;;;11.70;99.90;;;;;;5056593;28;20024;-36
2023/12/24 08:55:22;;;;;;;1.77;0.70;;;11.70;99.90;;;;;;5047892;28;20033;-35
2023/12/24 08:57:48;;;;;;;2.25;0.95;;;11.70;99.90;;;;;;5057287;28;20028;-36
2023/12/24 09:00:14;;;;;;;1.67;0.70;;;11.80;99.90;;;;;;5057089;28;20025;-36
2023/12/24 09:02:40;;;;;;;1.08;0.80;;;11.80;99.90;;;;;;5058091;28;20028;-35
2023/12/24 09:05:10;;;;;;;1.20;0.73;;;11.80;99.90;;;;;;5058886;28;20028;-36
2023/12/24 09:07:36;;;;;;;2.03;0.90;;;11.80;99.90;;;;;;5059586;28;20028;-35
2023/12/24 09:10:03;;;;;;;1.13;0.63;;;11.80;99.90;;;;;;5053420;28;20059;-37
2023/12/24 09:12:28;;;;;;;0.98;0.60;;;11.80;99.90;;;;;;5056772;28;20776;-37
2023/12/24 09:14:54;;;;;;;1.17;0.60;;;11.80;99.90;;;;;;5054976;28;20033;-36
2023/12/24 09:17:20;;;;;;;0.70;0.60;;;11.80;99.90;;;;;;5058427;28;20396;-36
2023/12/24 09:19:45;;;;;;;1.27;0.80;;;11.80;99.90;;;;;;5055952;28;20033;-37
2023/12/24 09:22:11;;;;;;;0.90;0.80;;;11.90;99.90;;;;;;5060140;28;20082;-36
2023/12/24 09:24:37;;;;;;;1.63;0.75;;;11.90;99.90;;;;;;5059352;28;20028;-37
2023/12/24 09:27:02;;;;;;;1.23;0.68;;;11.90;99.90;;;;;;5059417;28;20031;-36
2023/12/24 09:29:28;;;;;;;1.27;0.80;;;11.90;99.90;;;;;;5059877;28;20036;-37
2023/12/24 09:31:54;;;;;;;2.38;1.20;;;11.90;99.90;;;;;;5057997;28;20052;-36
2023/12/24 09:34:20;;;;;;;2.30;0.98;;;11.90;99.90;;;;;;5054935;28;20035;-36
2023/12/24 09:36:45;;;;;;;2.42;0.88;;;11.90;99.90;;;;;;5058041;28;20032;-36
2023/12/24 09:39:11;;;;;;;1.30;0.90;;;11.90;99.90;;;;;;5057603;28;20039;-36
2023/12/24 09:41:37;;;;;;;1.92;0.90;;;12.00;99.90;;;;;;5056647;28;20051;-36
2023/12/24 09:44:04;;;;;;;2.17;1.00;;;12.00;99.90;;;;;;5056303;28;20032;-36
2023/12/24 09:46:29;;;;;;;3.50;1.17;;;12.00;99.90;;;;;;5059825;28;20020;-37
2023/12/24 09:48:55;;;;;;;3.58;1.20;;;12.00;99.90;;;;;;5059149;28;20504;-36
2023/12/24 09:51:25;;;;;;;4.63;1.15;;;12.00;99.90;;;;;;5075524;28;20043;-36
2023/12/24 09:53:51;;;;;;;3.58;1.20;;;12.00;99.90;;;;;;5055270;28;20045;-36
2023/12/24 09:56:16;;;;;;;4.47;1.15;;;12.00;99.90;;;;;;5054876;28;20705;-36
2023/12/24 09:58:45;;;;;;;4.15;1.38;;;12.00;99.90;;;;;;5057396;28;20163;-37
2023/12/24 10:01:10;;;;;;;3.55;1.58;;;12.00;99.90;;;;;;5057436;28;20020;-37
2023/12/24 10:03:36;;;;;;;8.23;1.83;;;12.00;99.90;;;;;;5057444;28;20033;-37
2023/12/24 10:06:07;;;;;;;6.03;2.10;;;12.00;99.90;;;;;;5054400;28;20573;-37
2023/12/24 10:08:36;;;;;;;12.73;2.83;;;12.10;99.90;;;;;;5057824;28;20133;-38
2023/12/24 10:11:17;;;;;;;8.57;2.45;;;12.10;99.90;;;;;;5057133;28;20044;-37
2023/12/24 10:13:46;;;;;;;12.98;2.65;;;12.10;99.90;;;;;;5057182;28;20067;-37
2023/12/24 10:16:12;;;;;;;12.20;2.90;;;12.10;99.90;;;;;;5057328;28;20058;-37
2023/12/24 10:18:48;;;;;;;12.13;3.22;;;12.10;99.90;;;;;;5056876;28;20579;-36
2023/12/24 10:21:13;;;;;;;10.05;2.78;;;12.20;99.90;;;;;;5058475;28;20028;-37
2023/12/24 10:23:40;;;;;;;14.07;3.85;;;12.20;99.90;;;;;;5057474;28;20043;-37
2023/12/24 10:26:08;;;;;;;18.25;3.65;;;12.20;99.90;;;;;;5056853;28;20484;-36
2023/12/24 10:28:44;;;;;;;21.52;4.78;;;12.20;99.90;;;;;;5057436;28;20150;-35
2023/12/24 10:31:10;;;;;;;20.50;5.00;;;12.20;99.90;;;;;;5054721;28;20017;-40
2023/12/24 10:33:37;;;;;;;22.02;4.30;;;12.30;99.90;;;;;;5059329;28;20129;-36
2023/12/24 10:36:04;;;;;;;19.42;3.70;;;12.30;99.90;;;;;;5059631;28;20032;-36
2023/12/24 10:38:29;;;;;;;21.60;4.45;;;12.30;99.90;;;;;;5058818;28;20028;-36
2023/12/24 10:40:55;;;;;;;15.88;3.05;;;12.30;99.90;;;;;;5059288;28;20032;-36
2023/12/24 10:43:21;;;;;;;19.13;4.30;;;12.40;99.90;;;;;;5057220;28;20024;-35
2023/12/24 10:45:46;;;;;;;16.98;3.65;;;12.40;99.90;;;;;;5056549;28;20131;-36
2023/12/24 10:48:12;;;;;;;22.90;4.28;;;12.40;99.90;;;;;;5058080;28;20447;-36
2023/12/24 10:50:38;;;;;;;16.13;3.65;;;12.40;99.90;;;;;;5058739;28;20078;-36
2023/12/24 10:53:04;;;;;;;21.83;4.50;;;12.40;99.90;;;;;;5057982;28;20044;-36
2023/12/24 10:55:34;;;;;;;23.67;6.05;;;12.50;99.90;;;;;;5058593;28;20023;-36
2023/12/24 10:58:37;;;;;;;23.10;4.55;;;12.50;99.90;;;;;;5058999;28;20024;-36
2023/12/24 11:01:07;;;;;;;10.52;2.90;;;12.50;99.90;;;;;;5057796;28;20044;-37
2023/12/24 11:03:49;;;;;;;17.35;3.20;;;12.50;99.90;;;;;;5058164;28;20072;-37
2023/12/24 11:06:38;;;;;;;19.92;3.60;;;12.50;99.90;;;;;;5057250;28;20033;-36
2023/12/24 11:09:05;;;;;;;12.88;3.30;;;12.60;99.90;;;;;;5050415;28;20114;-37
2023/12/24 11:11:53;;;;;;;12.82;3.58;;;12.60;99.90;;;;;;5052508;28;20028;-37
2023/12/24 11:14:45;;;;;;;15.93;3.45;;;12.60;99.90;;;;;;5065080;28;20028;-37
2023/12/24 11:17:39;;;;;;;14.00;2.92;;;12.60;99.90;;;;;;5063633;27;20059;-38
2023/12/24 11:20:26;;;;;;;13.63;4.07;;;12.60;99.90;;;;;;5045910;28;20029;-35
2023/12/24 11:23:09;;;;;;;13.75;3.08;;;12.60;99.90;;;;;;5061210;28;20082;-37
2023/12/24 11:25:42;;;;;;;10.05;3.10;;;12.60;99.90;;;;;;5059757;28;20111;-36
2023/12/24 11:28:28;;;;;;;14.13;2.80;;;12.60;99.90;;;;;;5063378;28;20457;-37
2023/12/24 11:30:53;;;;;;;8.68;2.88;;;12.60;99.90;;;;;;5064437;28;20063;-36
2023/12/24 11:33:31;;;;;;;8.07;2.95;;;12.60;99.90;;;;;;5058792;28;20120;-37
2023/12/24 11:36:00;;;;;;;10.85;2.83;;;12.60;99.90;;;;;;5064964;28;20036;-37
2023/12/24 11:38:35;;;;;;;14.38;3.65;;;12.60;99.90;;;;;;5065435;27;20029;-37
2023/12/24 11:41:16;;;;;;;12.23;2.85;;;12.60;99.90;;;;;;5064448;28;20028;-37
2023/12/24 11:43:57;;;;;;;7.75;2.55;;;12.60;99.90;;;;;;5064166;28;20537;-37
2023/12/24 11:46:24;;;;;;;9.25;2.58;;;12.60;99.90;;;;;;5064555;28;20040;-36
2023/12/24 11:48:50;;;;;;;6.78;2.33;;;12.60;99.90;;;;;;5064919;28;20953;-37
2023/12/24 11:51:21;;;;;;;8.30;3.08;;;12.60;99.90;;;;;;5065344;28;20050;-36
2023/12/24 11:53:47;;;;;;;5.40;2.50;;;12.60;99.90;;;;;;5064924;28;20566;-36
2023/12/24 11:56:17;;;;;;;5.43;2.67;;;12.70;99.90;;;;;;5062498;28;20035;-36
2023/12/24 11:58:50;;;;;;;7.35;2.85;;;12.70;99.90;;;;;;5065616;28;20143;-37
2023/12/24 12:01:26;;;;;;;6.13;2.50;;;12.70;99.90;;;;;;5065681;28;20147;-37
2023/12/24 12:03:57;;;;;;;5.40;3.25;;;12.70;99.90;;;;;;5063406;28;20589;-37
2023/12/24 12:06:23;;;;;;;6.90;3.22;;;12.70;99.90;;;;;;5081043;28;20139;-36
2023/12/24 12:08:49;;;;;;;4.63;2.88;;;12.70;99.90;;;;;;5068573;28;20094;-35
2023/12/24 12:11:15;;;;;;;4.13;2.40;;;12.70;99.90;;;;;;5064493;28;20033;-36
2023/12/24 12:13:40;;;;;;;4.60;2.70;;;12.70;99.90;;;;;;5063089;28;20021;-36
2023/12/24 12:16:06;;;;;;;7.53;2.72;;;12.70;99.90;;;;;;5064133;28;20131;-37
2023/12/24 12:18:31;;;;;;;4.97;2.40;;;12.70;99.90;;;;;;5063470;28;20043;-37
2023/12/24 12:20:57;;;;;;;3.55;2.40;;;12.70;99.90;;;;;;5065282;28;20024;-37
2023/12/24 12:23:22;;;;;;;4.75;2.15;;;12.70;99.90;;;;;;5065310;28;20031;-39
2023/12/24 12:25:48;;;;;;;3.78;2.30;;;12.80;99.90;;;;;;5058582;28;20670;-36
2023/12/24 12:28:17;;;;;;;4.70;2.08;;;12.70;99.90;;;;;;5059884;28;20768;-36
2023/12/24 12:30:45;;;;;;;3.75;2.20;;;12.80;99.90;;;;;;5057376;28;20033;-37
2023/12/24 12:33:11;;;;;;;3.50;1.92;;;12.70;99.90;;;;;;5060773;28;20024;-37
2023/12/24 12:35:36;;;;;;;3.28;1.90;;;12.70;99.90;;;;;;5058178;28;20299;-37
2023/12/24 12:38:03;;;;;;;4.15;2.03;;;12.80;99.90;;;;;;5059279;28;20695;-36
2023/12/24 12:40:29;;;;;;;4.72;2.58;;;12.80;99.90;;;;;;5062248;28;20029;-37
2023/12/24 12:42:55;;;;;;;5.00;2.25;;;12.80;99.90;;;;;;5062351;28;20028;-41
2023/12/24 12:45:21;;;;;;;4.72;2.50;;;12.80;99.90;;;;;;5060637;28;20059;-36